createdAt,value
2018-06-14T00:01:48.226Z,21.96
2018-06-14T00:04:17.091Z,21.91
2018-06-14T00:06:45.893Z,21.83
2018-06-14T00:09:14.617Z,21.77
2018-06-14T00:11:43.409Z,21.66
2018-06-14T00:14:12.172Z,21.60
2018-06-14T00:16:40.908Z,21.59
2018-06-14T00:19:09.629Z,21.54
2018-06-14T00:21:38.391Z,21.47
2018-06-14T00:24:07.129Z,21.49
2018-06-14T00:26:35.879Z,21.46
2018-06-14T00:29:04.662Z,21.48
2018-06-14T00:31:33.405Z,21.46
2018-06-14T00:34:02.127Z,21.45
2018-06-14T00:36:30.926Z,21.36
2018-06-14T00:38:59.674Z,21.41
2018-06-14T00:41:28.402Z,21.41
2018-06-14T00:43:57.192Z,21.37
2018-06-14T00:48:53.598Z,21.31
2018-06-14T00:51:22.451Z,21.31
2018-06-14T00:53:51.233Z,21.31
2018-06-14T00:56:20.030Z,21.31
2018-06-14T00:58:48.788Z,21.31
2018-06-14T01:01:17.530Z,21.35
2018-06-14T01:03:46.271Z,21.34
2018-06-14T01:06:15.066Z,21.42
2018-06-14T01:08:43.815Z,21.40
2018-06-14T01:11:13.189Z,21.47
2018-06-14T01:13:41.955Z,21.55
2018-06-14T01:16:10.704Z,21.69
2018-06-14T01:18:39.429Z,21.66
2018-06-14T01:21:08.217Z,21.54
2018-06-14T01:23:36.962Z,21.61
2018-06-14T01:26:05.781Z,21.62
2018-06-14T01:28:34.549Z,21.67
2018-06-14T01:31:03.286Z,21.80
2018-06-14T01:33:32.069Z,21.86
2018-06-14T01:36:00.843Z,21.87
2018-06-14T01:38:29.595Z,21.92
2018-06-14T01:40:58.341Z,21.84
2018-06-14T01:43:27.122Z,21.76
2018-06-14T01:45:55.874Z,21.60
2018-06-14T01:48:24.601Z,21.53
2018-06-14T01:50:53.341Z,21.47
2018-06-14T01:53:22.043Z,21.40
2018-06-14T01:55:50.782Z,21.35
2018-06-14T01:58:19.590Z,21.45
2018-06-14T02:00:48.367Z,21.50
2018-06-14T02:03:17.110Z,21.53
2018-06-14T02:05:46.057Z,21.59
2018-06-14T02:08:14.861Z,21.64
2018-06-14T02:10:43.609Z,21.70
2018-06-14T02:13:12.450Z,21.65
2018-06-14T02:15:41.200Z,21.65
2018-06-14T02:18:09.966Z,21.62
2018-06-14T02:20:38.714Z,21.60
2018-06-14T02:23:07.439Z,21.57
2018-06-14T02:25:36.239Z,21.52
2018-06-14T02:28:04.981Z,21.46
2018-06-14T02:30:33.678Z,21.43
2018-06-14T02:33:02.374Z,21.42
2018-06-14T02:35:31.242Z,21.42
2018-06-14T02:37:59.954Z,21.36
2018-06-14T02:40:28.650Z,21.31
2018-06-14T02:42:57.393Z,21.17
2018-06-14T02:45:26.091Z,21.12
2018-06-14T02:47:54.907Z,21.13
2018-06-14T02:50:23.677Z,21.17
2018-06-14T02:52:52.391Z,21.22
2018-06-14T02:55:21.174Z,21.21
2018-06-14T02:57:49.930Z,21.21
2018-06-14T03:00:18.777Z,21.22
2018-06-14T03:02:47.526Z,21.28
2018-06-14T03:05:16.294Z,21.27
2018-06-14T03:07:45.023Z,21.31
2018-06-14T03:10:13.756Z,21.44
2018-06-14T03:12:42.514Z,21.56
2018-06-14T03:15:11.238Z,21.66
2018-06-14T03:17:39.965Z,21.73
2018-06-14T03:20:08.761Z,21.73
2018-06-14T03:22:37.600Z,21.83
2018-06-14T03:25:06.315Z,21.83
2018-06-14T03:27:35.057Z,21.96
2018-06-14T03:30:03.856Z,22.03
2018-06-14T03:32:32.644Z,22.15
2018-06-14T03:35:01.397Z,22.24
2018-06-14T03:37:30.104Z,22.27
2018-06-14T03:39:58.816Z,22.35
2018-06-14T03:42:27.598Z,22.36
2018-06-14T03:44:56.396Z,22.35
2018-06-14T03:47:25.111Z,22.36
2018-06-14T03:49:53.873Z,22.37
2018-06-14T03:52:22.592Z,22.45
2018-06-14T03:54:51.311Z,22.54
2018-06-14T03:57:20.066Z,22.66
2018-06-14T03:59:48.878Z,22.84
2018-06-14T04:02:17.590Z,22.97
2018-06-14T04:04:46.327Z,23.08
2018-06-14T04:07:15.113Z,23.13
2018-06-14T04:09:43.807Z,22.99
2018-06-14T04:12:12.594Z,22.84
2018-06-14T04:14:41.478Z,22.78
2018-06-14T04:17:10.286Z,22.82
2018-06-14T04:19:39.041Z,22.98
2018-06-14T04:22:07.778Z,22.98
2018-06-14T04:24:36.633Z,23.47
2018-06-14T04:27:05.379Z,23.70
2018-06-14T04:29:34.102Z,23.86
2018-06-14T04:32:02.827Z,23.97
2018-06-14T04:34:31.565Z,24.04
2018-06-14T04:37:00.290Z,24.08
2018-06-14T04:39:29.001Z,24.11
2018-06-14T04:41:57.780Z,24.10
2018-06-14T04:44:26.477Z,24.17
2018-06-14T04:46:55.260Z,24.20
2018-06-14T04:49:24.010Z,24.34
2018-06-14T04:51:52.734Z,24.49
2018-06-14T04:54:21.430Z,24.49
2018-06-14T04:56:50.389Z,24.55
2018-06-14T04:59:19.263Z,24.72
2018-06-14T05:01:48.145Z,24.90
2018-06-14T05:04:16.885Z,24.90
2018-06-14T05:06:45.597Z,25.04
2018-06-14T05:09:14.695Z,25.02
2018-06-14T05:11:43.422Z,24.99
2018-06-14T05:14:12.103Z,25.33
2018-06-14T05:16:40.806Z,26.26
2018-06-14T05:19:09.549Z,27.20
2018-06-14T05:21:39.081Z,28.47
2018-06-14T05:24:07.785Z,29.31
2018-06-14T05:26:36.502Z,30.16
2018-06-14T05:29:05.848Z,30.80
2018-06-14T05:31:34.587Z,31.50
2018-06-14T05:34:03.354Z,31.95
2018-06-14T05:36:32.234Z,32.46
2018-06-14T05:39:00.969Z,33.38
2018-06-14T05:41:29.748Z,33.77
2018-06-14T05:43:58.600Z,33.99
2018-06-14T05:46:27.333Z,33.93
2018-06-14T05:48:56.441Z,33.98
2018-06-14T05:51:25.149Z,34.03
2018-06-14T05:53:53.917Z,32.35
2018-06-14T05:56:22.624Z,31.88
2018-06-14T05:58:51.325Z,31.06
2018-06-14T06:01:20.157Z,30.76
2018-06-14T06:03:48.881Z,30.39
2018-06-14T06:06:17.582Z,30.21
2018-06-14T06:08:46.388Z,30.23
2018-06-14T06:11:16.082Z,30.16
2018-06-14T06:13:45.409Z,29.77
2018-06-14T06:16:14.140Z,29.58
2018-06-14T06:18:42.841Z,29.08
2018-06-14T06:21:11.588Z,28.47
2018-06-14T06:23:40.557Z,28.64
2018-06-14T06:26:09.350Z,28.71
2018-06-14T06:28:38.045Z,28.59
2018-06-14T06:31:06.769Z,28.29
2018-06-14T06:33:35.507Z,28.12
2018-06-14T06:36:04.216Z,28.14
2018-06-14T06:38:32.961Z,27.91
2018-06-14T06:41:01.688Z,28.00
2018-06-14T06:43:30.590Z,27.88
2018-06-14T06:45:59.335Z,27.85
2018-06-14T06:48:28.072Z,27.43
2018-06-14T06:50:56.894Z,27.35
2018-06-14T06:53:25.678Z,27.13
2018-06-14T06:55:54.450Z,27.18
2018-06-14T06:58:23.155Z,27.10
2018-06-14T07:00:51.902Z,27.04
2018-06-14T07:03:20.601Z,26.80
2018-06-14T07:05:49.347Z,26.69
2018-06-14T07:08:18.089Z,26.57
2018-06-14T07:10:46.844Z,26.41
2018-06-14T07:13:15.605Z,26.32
2018-06-14T07:15:44.442Z,26.22
2018-06-14T07:18:13.227Z,25.93
2018-06-14T07:20:41.938Z,25.66
2018-06-14T07:23:10.670Z,25.52
2018-06-14T07:25:39.383Z,25.23
2018-06-14T07:28:07.763Z,24.93
2018-06-14T07:30:36.551Z,24.55
2018-06-14T07:33:05.313Z,24.20
2018-06-14T07:35:34.023Z,23.97
2018-06-14T07:38:02.782Z,23.83
2018-06-14T07:40:31.495Z,23.76
2018-06-14T07:43:00.210Z,23.58
2018-06-14T07:45:28.969Z,23.32
2018-06-14T07:47:57.718Z,23.22
2018-06-14T07:50:26.445Z,23.08
2018-06-14T07:52:55.181Z,23.12
2018-06-14T07:55:23.918Z,23.10
2018-06-14T07:57:52.634Z,23.05
2018-06-14T08:00:21.439Z,23.03
2018-06-14T08:02:50.204Z,22.94
2018-06-14T08:05:18.989Z,22.95
2018-06-14T08:07:47.744Z,22.96
2018-06-14T08:10:16.445Z,22.97
2018-06-14T08:12:45.275Z,23.04
2018-06-14T08:15:13.982Z,22.98
2018-06-14T08:17:42.726Z,22.80
2018-06-14T08:20:11.445Z,22.76
2018-06-14T08:22:40.177Z,22.70
2018-06-14T08:25:08.930Z,22.68
2018-06-14T08:27:37.654Z,22.58
2018-06-14T08:30:06.863Z,22.54
2018-06-14T08:32:35.581Z,22.53
2018-06-14T08:35:04.293Z,22.57
2018-06-14T08:37:33.047Z,22.65
2018-06-14T08:40:02.128Z,22.53
2018-06-14T08:42:30.925Z,22.56
2018-06-14T08:44:59.765Z,22.60
2018-06-14T08:47:28.484Z,22.27
2018-06-14T08:49:57.182Z,22.11
2018-06-14T08:52:26.117Z,22.03
2018-06-14T08:54:54.846Z,22.08
2018-06-14T08:57:24.437Z,22.03
2018-06-14T08:59:53.185Z,22.03
2018-06-14T09:02:21.914Z,22.02
2018-06-14T09:04:50.762Z,22.04
2018-06-14T09:07:19.533Z,22.08
2018-06-14T09:09:48.271Z,22.03
2018-06-14T09:12:16.990Z,21.97
2018-06-14T09:14:45.763Z,22.01
2018-06-14T09:17:14.499Z,21.97
2018-06-14T09:19:43.248Z,21.94
2018-06-14T09:22:12.033Z,21.89
2018-06-14T09:24:40.860Z,21.86
2018-06-14T09:27:09.569Z,21.87
2018-06-14T09:29:38.373Z,21.80
2018-06-14T09:32:07.097Z,21.86
2018-06-14T09:34:35.846Z,21.93
2018-06-14T09:37:04.569Z,22.03
2018-06-14T09:39:33.305Z,22.02
2018-06-14T09:42:02.006Z,21.86
2018-06-14T09:44:30.733Z,21.79
2018-06-14T09:46:59.433Z,21.71
2018-06-14T09:49:28.130Z,21.67
2018-06-14T09:51:56.856Z,21.70
2018-06-14T09:54:25.705Z,21.86
2018-06-14T09:56:54.450Z,21.96
2018-06-14T09:59:23.201Z,22.08
2018-06-14T10:01:51.954Z,22.24
2018-06-14T10:04:20.678Z,22.38
2018-06-14T10:06:49.413Z,22.66
2018-06-14T10:09:18.109Z,22.86
2018-06-14T10:11:46.802Z,22.98
2018-06-14T10:14:15.559Z,23.45
2018-06-14T10:16:44.272Z,24.10
2018-06-14T10:19:12.958Z,25.07
2018-06-14T10:21:41.710Z,26.51
2018-06-14T10:24:10.423Z,27.53
2018-06-14T10:26:39.154Z,29.02
2018-06-14T10:29:07.894Z,30.08
2018-06-14T10:31:36.617Z,30.66
2018-06-14T10:34:05.442Z,31.24
2018-06-14T10:36:34.175Z,32.23
2018-06-14T10:39:03.081Z,33.18
2018-06-14T10:41:31.806Z,33.98
2018-06-14T10:44:00.695Z,35.16
2018-06-14T10:46:29.414Z,34.32
2018-06-14T10:48:58.732Z,35.00
2018-06-14T10:51:27.530Z,34.90
2018-06-14T10:53:56.310Z,34.60
2018-06-14T10:56:25.026Z,35.01
2018-06-14T10:58:53.754Z,33.77
2018-06-14T11:01:22.478Z,32.76
2018-06-14T11:03:51.454Z,32.25
2018-06-14T11:06:20.202Z,30.96
2018-06-14T11:08:50.032Z,30.67
2018-06-14T11:11:18.781Z,30.65
2018-06-14T11:13:47.530Z,30.62
2018-06-14T11:16:16.238Z,30.25
2018-06-14T11:18:44.973Z,30.21
2018-06-14T11:21:13.705Z,30.17
2018-06-14T11:23:42.543Z,30.02
2018-06-14T11:26:11.259Z,29.41
2018-06-14T11:28:39.990Z,28.80
2018-06-14T11:31:08.788Z,28.89
2018-06-14T11:33:37.614Z,29.64
2018-06-14T11:36:06.358Z,30.57
2018-06-14T11:38:35.157Z,31.88
2018-06-14T11:41:03.963Z,32.49
2018-06-14T11:43:32.722Z,32.87
2018-06-14T11:46:01.487Z,32.94
2018-06-14T11:48:30.264Z,32.61
2018-06-14T11:50:59.017Z,33.08
2018-06-14T11:53:27.765Z,33.07
2018-06-14T11:55:56.457Z,32.25
2018-06-14T11:58:25.289Z,32.18
2018-06-14T12:00:53.981Z,32.02
2018-06-14T12:03:22.802Z,32.84
2018-06-14T12:05:51.804Z,33.22
2018-06-14T12:08:20.540Z,34.11
2018-06-14T12:10:49.241Z,34.68
2018-06-14T12:13:17.977Z,34.15
2018-06-14T12:15:46.706Z,33.95
2018-06-14T12:18:15.409Z,33.94
2018-06-14T12:20:44.350Z,34.24
2018-06-14T12:23:13.063Z,34.45
2018-06-14T12:25:41.854Z,34.97
2018-06-14T12:28:10.597Z,33.92
2018-06-14T12:30:39.404Z,33.38
2018-06-14T12:33:08.471Z,31.60
2018-06-14T12:35:37.283Z,31.24
2018-06-14T12:38:06.014Z,31.17
2018-06-14T12:40:34.743Z,31.28
2018-06-14T12:43:03.520Z,31.30
2018-06-14T12:45:32.278Z,30.84
2018-06-14T12:48:00.995Z,30.94
2018-06-14T12:50:29.776Z,30.86
2018-06-14T12:52:58.580Z,30.58
2018-06-14T12:55:27.380Z,30.51
2018-06-14T12:57:56.172Z,30.35
2018-06-14T13:00:24.887Z,29.42
2018-06-14T13:02:53.666Z,29.88
2018-06-14T13:05:22.542Z,30.42
2018-06-14T13:07:51.270Z,30.70
2018-06-14T13:10:20.025Z,31.13
2018-06-14T13:12:48.775Z,30.22
2018-06-14T13:15:17.621Z,30.21
2018-06-14T13:17:46.709Z,30.52
2018-06-14T13:20:15.459Z,30.59
2018-06-14T13:22:44.184Z,30.74
2018-06-14T13:25:12.923Z,31.05
2018-06-14T13:27:41.706Z,31.14
2018-06-14T13:30:10.417Z,31.52
2018-06-14T13:32:39.154Z,31.61
2018-06-14T13:35:07.923Z,31.32
2018-06-14T13:37:36.678Z,31.35
2018-06-14T13:40:05.593Z,30.77
2018-06-14T13:42:34.473Z,30.27
2018-06-14T13:45:03.267Z,29.16
2018-06-14T13:47:31.969Z,29.18
2018-06-14T13:50:00.729Z,29.05
2018-06-14T13:52:29.778Z,29.03
2018-06-14T13:54:58.534Z,28.55
2018-06-14T13:57:27.286Z,28.27
2018-06-14T13:59:56.039Z,27.86
2018-06-14T14:02:24.878Z,27.60
2018-06-14T14:04:53.622Z,27.24
2018-06-14T14:07:29.422Z,27.07
2018-06-14T14:09:59.290Z,26.84
2018-06-14T14:12:28.368Z,26.29
2018-06-14T14:15:02.626Z,26.18
2018-06-14T14:17:31.343Z,26.10
2018-06-14T14:20:00.181Z,25.97
2018-06-14T14:22:28.966Z,25.73
2018-06-14T14:24:57.676Z,25.85
2018-06-14T14:27:26.394Z,25.92
2018-06-14T14:29:55.187Z,25.88
2018-06-14T14:32:24.087Z,25.79
2018-06-14T14:34:52.801Z,25.74
2018-06-14T14:37:21.574Z,25.57
2018-06-14T14:39:50.294Z,25.55
2018-06-14T14:42:19.025Z,25.50
2018-06-14T14:44:47.755Z,25.37
2018-06-14T14:47:16.470Z,25.27
2018-06-14T14:49:45.204Z,25.18
2018-06-14T14:52:14.067Z,25.11
2018-06-14T14:54:42.878Z,25.12
2018-06-14T14:57:11.595Z,24.94
2018-06-14T14:59:40.404Z,24.79
2018-06-14T15:02:09.146Z,24.53
2018-06-14T15:04:37.878Z,24.13
2018-06-14T15:07:06.625Z,23.91
2018-06-14T15:09:35.328Z,23.81
2018-06-14T15:12:04.072Z,23.72
2018-06-14T15:14:32.874Z,23.63
2018-06-14T15:17:01.600Z,23.56
2018-06-14T15:19:30.327Z,23.58
2018-06-14T15:21:59.197Z,23.58
2018-06-14T15:24:27.951Z,23.44
2018-06-14T15:26:56.679Z,23.11
2018-06-14T15:29:25.536Z,22.94
2018-06-14T15:31:54.253Z,22.82
2018-06-14T15:34:22.973Z,22.49
2018-06-14T15:36:51.754Z,22.28
2018-06-14T15:39:20.671Z,22.11
2018-06-14T15:41:49.407Z,21.92
2018-06-14T15:44:18.142Z,21.64
2018-06-14T15:46:46.859Z,21.39
2018-06-14T15:51:43.362Z,21.30
2018-06-14T15:54:14.551Z,21.31
2018-06-14T15:56:43.708Z,21.36
2018-06-14T15:59:13.645Z,21.27
2018-06-14T16:01:42.399Z,21.30
2018-06-14T16:04:11.358Z,21.37
2018-06-14T16:06:40.079Z,21.44
2018-06-14T16:09:10.994Z,21.51
2018-06-14T16:11:40.012Z,21.52
2018-06-14T16:14:08.750Z,21.59
2018-06-14T16:16:37.458Z,21.63
2018-06-14T16:19:06.491Z,21.67
2018-06-14T16:21:35.260Z,21.58
2018-06-14T16:24:04.176Z,21.43
2018-06-14T16:26:32.921Z,21.40
2018-06-14T16:29:01.671Z,21.42
2018-06-14T16:31:30.453Z,21.32
2018-06-14T16:33:59.206Z,21.38
2018-06-14T16:36:28.018Z,21.37
2018-06-14T16:38:56.782Z,21.37
2018-06-14T16:41:25.610Z,21.36
2018-06-14T16:43:54.315Z,21.37
2018-06-14T16:46:23.147Z,21.35
2018-06-14T16:48:51.889Z,21.14
2018-06-14T16:51:20.622Z,21.08
2018-06-14T16:53:49.335Z,20.89
2018-06-14T16:56:18.129Z,20.76
2018-06-14T16:58:47.125Z,20.63
2018-06-14T17:01:15.974Z,20.57
2018-06-14T17:03:44.758Z,20.54
2018-06-14T17:06:13.474Z,20.53
2018-06-14T17:08:42.249Z,20.49
2018-06-14T17:11:11.046Z,20.48
2018-06-14T17:13:39.837Z,20.41
2018-06-14T17:16:08.804Z,20.36
2018-06-14T17:18:37.537Z,20.27
2018-06-14T17:21:06.275Z,20.36
2018-06-14T17:23:35.229Z,20.32
2018-06-14T17:26:04.145Z,20.30
2018-06-14T17:28:33.060Z,20.27
2018-06-14T17:31:01.828Z,20.24
2018-06-14T17:33:30.611Z,20.14
2018-06-14T17:35:59.359Z,20.02
2018-06-14T17:38:28.106Z,19.94
2018-06-14T17:40:56.892Z,19.97
2018-06-14T17:43:25.634Z,20.00
2018-06-14T17:45:54.362Z,19.97
2018-06-14T17:48:23.178Z,19.96
2018-06-14T17:50:51.877Z,19.63
2018-06-14T17:53:20.632Z,19.94
2018-06-14T17:55:49.450Z,19.86
2018-06-14T17:58:18.153Z,19.92
2018-06-14T18:00:46.905Z,19.93
2018-06-14T18:03:15.625Z,19.90
2018-06-14T18:05:44.334Z,19.83
2018-06-14T18:08:13.037Z,19.86
2018-06-14T18:10:41.817Z,19.87
2018-06-14T18:13:10.521Z,19.85
2018-06-14T18:15:39.228Z,19.82
2018-06-14T18:18:07.978Z,19.85
2018-06-14T18:20:36.691Z,19.83
2018-06-14T18:23:05.409Z,19.72
2018-06-14T18:25:34.136Z,19.69
2018-06-14T18:28:02.862Z,19.69
2018-06-14T18:30:31.570Z,19.74
2018-06-14T18:33:00.332Z,19.67
2018-06-14T18:35:29.041Z,19.61
2018-06-14T18:37:57.802Z,19.55
2018-06-14T18:40:26.549Z,19.55
2018-06-14T18:42:55.245Z,19.50
2018-06-14T18:45:24.019Z,19.43
2018-06-14T18:47:52.757Z,19.46
2018-06-14T18:50:21.517Z,19.49
2018-06-14T18:52:50.277Z,19.47
2018-06-14T18:55:19.010Z,19.47
2018-06-14T18:57:47.733Z,19.48
2018-06-14T19:00:18.218Z,19.48
2018-06-14T19:02:46.945Z,19.50
2018-06-14T19:05:15.661Z,19.56
2018-06-14T19:07:44.391Z,19.57
2018-06-14T19:10:13.147Z,19.53
2018-06-14T19:12:41.909Z,19.51
2018-06-14T19:15:10.679Z,19.48
2018-06-14T19:17:39.928Z,19.46
2018-06-14T19:20:08.773Z,19.43
2018-06-14T19:22:37.520Z,19.51
2018-06-14T19:25:06.499Z,19.45
2018-06-14T19:27:35.206Z,19.41
2018-06-14T19:30:04.067Z,19.37
2018-06-14T19:32:32.884Z,19.30
2018-06-14T19:35:01.597Z,19.27
2018-06-14T19:37:30.393Z,19.27
2018-06-14T19:39:59.229Z,19.22
2018-06-14T19:42:27.942Z,19.19
2018-06-14T19:44:56.658Z,19.13
2018-06-14T19:47:25.486Z,19.30
2018-06-14T19:49:54.242Z,19.27
2018-06-14T19:52:22.957Z,19.26
2018-06-14T19:54:51.732Z,19.26
2018-06-14T19:57:20.468Z,19.18
2018-06-14T19:59:49.192Z,19.15
2018-06-14T20:02:17.981Z,19.18
2018-06-14T20:04:46.737Z,19.19
2018-06-14T20:07:15.494Z,19.15
2018-06-14T20:09:44.229Z,19.12
2018-06-14T20:12:12.975Z,19.12
2018-06-14T20:14:41.694Z,19.06
2018-06-14T20:17:10.456Z,19.09
2018-06-14T20:19:39.187Z,19.11
2018-06-14T20:22:07.914Z,19.05
2018-06-14T20:24:36.674Z,19.06
2018-06-14T20:27:05.450Z,18.99
2018-06-14T20:29:34.185Z,18.91
2018-06-14T20:32:02.979Z,18.87
2018-06-14T20:34:31.684Z,18.83
2018-06-14T20:37:00.386Z,18.72
2018-06-14T20:39:29.172Z,18.72
2018-06-14T20:41:57.988Z,18.67
2018-06-14T20:44:26.654Z,18.66
2018-06-14T20:46:55.418Z,18.61
2018-06-14T20:49:24.486Z,18.64
2018-06-14T20:51:53.248Z,18.74
2018-06-14T20:54:22.047Z,18.65
2018-06-14T20:56:50.790Z,18.76
2018-06-14T20:59:19.521Z,18.70
2018-06-14T21:01:48.259Z,18.74
2018-06-14T21:04:17.060Z,18.65
2018-06-14T21:06:45.825Z,18.62
2018-06-14T21:09:14.730Z,18.63
2018-06-14T21:11:43.483Z,18.58
2018-06-14T21:14:12.198Z,18.60
2018-06-14T21:16:40.930Z,18.63
2018-06-14T21:19:09.650Z,18.64
2018-06-14T21:21:38.362Z,18.57
2018-06-14T21:24:07.196Z,18.57
2018-06-14T21:26:36.346Z,18.48
2018-06-14T21:29:05.081Z,18.40
2018-06-14T21:31:34.102Z,18.33
2018-06-14T21:34:02.807Z,18.29
2018-06-14T21:36:31.565Z,18.29
2018-06-14T21:39:00.331Z,18.31
2018-06-14T21:41:29.039Z,18.35
2018-06-14T21:43:57.740Z,18.30
2018-06-14T21:46:26.481Z,18.27
2018-06-14T21:48:55.335Z,18.19
2018-06-14T21:51:24.328Z,18.14
2018-06-14T21:53:53.161Z,18.12
2018-06-14T21:56:21.965Z,18.13
2018-06-14T21:58:50.686Z,18.10
2018-06-14T22:01:20.446Z,18.10
2018-06-14T22:03:54.111Z,18.09
2018-06-14T22:06:22.900Z,18.09
2018-06-14T22:08:51.836Z,18.02
2018-06-14T22:11:20.601Z,17.99
2018-06-14T22:13:49.402Z,18.05
2018-06-14T22:16:18.141Z,18.05
2018-06-14T22:18:46.867Z,18.06
2018-06-14T22:21:16.217Z,18.13
2018-06-14T22:23:45.176Z,18.06
2018-06-14T22:26:14.061Z,17.98
2018-06-14T22:28:42.842Z,17.92
2018-06-14T22:31:11.597Z,17.85
2018-06-14T22:33:51.325Z,17.74
2018-06-14T22:36:20.132Z,17.72
2018-06-14T22:38:48.911Z,17.84
2018-06-14T22:41:17.666Z,17.89
2018-06-14T22:43:46.440Z,17.89
2018-06-14T22:46:15.194Z,17.94
2018-06-14T22:48:44.023Z,17.95
2018-06-14T22:51:22.579Z,17.91
2018-06-14T22:53:51.426Z,17.89
2018-06-14T22:56:20.203Z,17.88
2018-06-14T22:58:49.158Z,17.85
2018-06-14T23:01:35.379Z,17.88
2018-06-14T23:04:04.617Z,17.79
2018-06-14T23:06:33.427Z,17.83
2018-06-14T23:09:11.963Z,17.88
2018-06-14T23:11:40.882Z,17.88
2018-06-14T23:14:09.645Z,17.88
2018-06-14T23:16:38.379Z,17.82
2018-06-14T23:19:07.339Z,17.81
2018-06-14T23:21:36.096Z,17.86
2018-06-14T23:24:04.882Z,17.85
2018-06-14T23:26:33.665Z,17.85
2018-06-14T23:29:02.419Z,17.82
2018-06-14T23:31:31.200Z,17.77
2018-06-14T23:33:59.969Z,17.76
2018-06-14T23:36:28.739Z,17.76
2018-06-14T23:38:57.692Z,17.72
2018-06-14T23:41:26.434Z,17.71
2018-06-14T23:43:55.200Z,17.69
2018-06-14T23:46:23.995Z,17.68
2018-06-14T23:48:52.767Z,17.68
2018-06-14T23:51:21.518Z,17.67
2018-06-14T23:53:50.322Z,17.68
2018-06-14T23:56:19.091Z,17.68
2018-06-14T23:58:47.844Z,17.67
